FZDJ weather

Mutena Airport
Mutena, Kasai-Occidental Province, Congo (Kinshasa)

Public forecast

Using degrees Celsius for public forecast. Weather courtesy of forecast.io.

METAR (pilot weather report)

Closest report is Dundo Airport, 42.9 nm (79.4 km) SSW. Retrieved 2019/01/24 06:00 UTC (48 minutes ago):

FNDU 240600Z 00000KT 5000 BR BKN004 21/19 Q1018

TAF (pilot weather forecast)

Forecast is more than 12 hours old.

Closest forecast is Dundo Airport, 42.9 nm (79.4 km) SSW. Retrieved 2019/01/23 12:45 UTC (18 hours ago):

TAF FNDU 231045Z 2312/2324 27004KT 9000 SCT025 PROB30 TEMPO 2314/2318 9999 FEW023 FEW030CB BKN050 PROB30 TEMPO 2321/2323 VRB03KT 9000 SCT018 BKN030